sensor_id;sensor_type;location;lat;lon;timestamp;P1;durP1;ratioP1;P2;durP2;ratioP2
64018;SDS011;66942;52.138;5.216;2023-07-13T00:00:54;5.8;;;2.4;;
64018;SDS011;66942;52.138;5.216;2023-07-13T00:02:30;6.1;;;3.0;;
64018;SDS011;66942;52.138;5.216;2023-07-13T00:04:06;4.7;;;2.6;;
64018;SDS011;66942;52.138;5.216;2023-07-13T00:07:18;6.5;;;2.8;;
64018;SDS011;66942;52.138;5.216;2023-07-13T00:08:54;7.0;;;3.2;;
64018;SDS011;66942;52.138;5.216;2023-07-13T00:10:30;6.1;;;2.7;;
64018;SDS011;66942;52.138;5.216;2023-07-13T00:12:20;6.6;;;2.9;;
64018;SDS011;66942;52.138;5.216;2023-07-13T00:15:40;7.3;;;3.2;;
64018;SDS011;66942;52.138;5.216;2023-07-13T00:17:16;7.1;;;2.7;;
64018;SDS011;66942;52.138;5.216;2023-07-13T00:18:52;7.2;;;3.3;;
64018;SDS011;66942;52.138;5.216;2023-07-13T00:20:28;6.3;;;3.1;;
64018;SDS011;66942;52.138;5.216;2023-07-13T00:23:40;8.4;;;2.9;;
64018;SDS011;66942;52.138;5.216;2023-07-13T00:25:18;6.2;;;3.0;;
64018;SDS011;66942;52.138;5.216;2023-07-13T00:26:55;5.6;;;2.7;;
64018;SDS011;66942;52.138;5.216;2023-07-13T00:30:08;5.6;;;2.7;;
64018;SDS011;66942;52.138;5.216;2023-07-13T00:31:46;7.2;;;3.0;;
64018;SDS011;66942;52.138;5.216;2023-07-13T00:33:22;7.7;;;3.0;;
64018;SDS011;66942;52.138;5.216;2023-07-13T00:36:35;6.8;;;2.6;;
64018;SDS011;66942;52.138;5.216;2023-07-13T00:38:11;6.1;;;2.8;;
64018;SDS011;66942;52.138;5.216;2023-07-13T00:39:47;5.3;;;2.31;;
64018;SDS011;66942;52.138;5.216;2023-07-13T00:41:23;4.7;;;2.6;;
64018;SDS011;66942;52.138;5.216;2023-07-13T00:44:35;5.0;;;2.5;;
64018;SDS011;66942;52.138;5.216;2023-07-13T00:46:15;5.11;;;2.5;;
64018;SDS011;66942;52.138;5.216;2023-07-13T00:48:00;4.61;;;2.31;;
64018;SDS011;66942;52.138;5.216;2023-07-13T00:51:12;7.3;;;3.0;;
64018;SDS011;66942;52.138;5.216;2023-07-13T00:52:52;5.3;;;2.4;;
64018;SDS011;66942;52.138;5.216;2023-07-13T00:54:31;4.7;;;2.31;;
64018;SDS011;66942;52.138;5.216;2023-07-13T00:56:15;4.7;;;2.31;;
64018;SDS011;66942;52.138;5.216;2023-07-13T00:59:27;5.3;;;2.6;;
64018;SDS011;66942;52.138;5.216;2023-07-13T01:01:04;5.9;;;2.9;;
64018;SDS011;66942;52.138;5.216;2023-07-13T01:02:41;5.11;;;2.31;;
64018;SDS011;66942;52.138;5.216;2023-07-13T01:04:23;6.5;;;2.5;;
64018;SDS011;66942;52.138;5.216;2023-07-13T01:07:36;4.5;;;2.21;;
64018;SDS011;66942;52.138;5.216;2023-07-13T01:09:13;5.0;;;2.9;;
64018;SDS011;66942;52.138;5.216;2023-07-13T01:10:51;5.3;;;2.5;;
64018;SDS011;66942;52.138;5.216;2023-07-13T01:14:05;6.0;;;2.6;;
64018;SDS011;66942;52.138;5.216;2023-07-13T01:15:42;6.4;;;2.4;;
64018;SDS011;66942;52.138;5.216;2023-07-13T01:17:20;3.7;;;2.31;;
64018;SDS011;66942;52.138;5.216;2023-07-13T01:20:33;5.11;;;2.4;;
64018;SDS011;66942;52.138;5.216;2023-07-13T01:22:12;6.4;;;2.9;;
64018;SDS011;66942;52.138;5.216;2023-07-13T01:23:51;4.2;;;2.5;;
64018;SDS011;66942;52.138;5.216;2023-07-13T01:25:27;4.91;;;2.21;;
64018;SDS011;66942;52.138;5.216;2023-07-13T01:28:42;3.9;;;2.21;;
64018;SDS011;66942;52.138;5.216;2023-07-13T01:30:19;6.0;;;2.6;;
64018;SDS011;66942;52.138;5.216;2023-07-13T01:31:55;6.6;;;2.4;;
64018;SDS011;66942;52.138;5.216;2023-07-13T01:35:07;4.41;;;2.31;;
64018;SDS011;66942;52.138;5.216;2023-07-13T01:36:43;6.1;;;2.6;;
64018;SDS011;66942;52.138;5.216;2023-07-13T01:38:21;4.8;;;2.31;;
64018;SDS011;66942;52.138;5.216;2023-07-13T01:39:58;4.61;;;2.7;;
64018;SDS011;66942;52.138;5.216;2023-07-13T01:43:11;4.7;;;2.5;;
64018;SDS011;66942;52.138;5.216;2023-07-13T01:44:48;5.6;;;2.5;;
64018;SDS011;66942;52.138;5.216;2023-07-13T01:46:24;5.5;;;2.5;;
64018;SDS011;66942;52.138;5.216;2023-07-13T01:49:36;5.3;;;2.4;;
64018;SDS011;66942;52.138;5.216;2023-07-13T01:51:12;6.1;;;2.4;;
64018;SDS011;66942;52.138;5.216;2023-07-13T01:52:49;5.6;;;2.9;;
64018;SDS011;66942;52.138;5.216;2023-07-13T01:56:01;6.3;;;2.8;;
64018;SDS011;66942;52.138;5.216;2023-07-13T01:57:37;6.3;;;2.7;;
64018;SDS011;66942;52.138;5.216;2023-07-13T01:59:13;5.6;;;2.9;;
64018;SDS011;66942;52.138;5.216;2023-07-13T02:00:49;7.0;;;2.9;;
64018;SDS011;66942;52.138;5.216;2023-07-13T02:04:04;6.3;;;2.9;;
64018;SDS011;66942;52.138;5.216;2023-07-13T02:05:40;6.3;;;2.8;;
64018;SDS011;66942;52.138;5.216;2023-07-13T02:07:16;6.3;;;2.6;;
64018;SDS011;66942;52.138;5.216;2023-07-13T02:10:29;6.6;;;2.9;;
64018;SDS011;66942;52.138;5.216;2023-07-13T02:12:06;6.0;;;3.0;;
64018;SDS011;66942;52.138;5.216;2023-07-13T02:13:42;6.3;;;3.2;;
64018;SDS011;66942;52.138;5.216;2023-07-13T02:16:55;6.0;;;2.9;;
64018;SDS011;66942;52.138;5.216;2023-07-13T02:18:31;6.4;;;2.8;;
64018;SDS011;66942;52.138;5.216;2023-07-13T02:20:07;7.4;;;3.0;;
64018;SDS011;66942;52.138;5.216;2023-07-13T02:21:44;6.3;;;3.0;;
64018;SDS011;66942;52.138;5.216;2023-07-13T02:24:56;5.2;;;2.5;;
64018;SDS011;66942;52.138;5.216;2023-07-13T02:26:32;6.0;;;2.6;;
64018;SDS011;66942;52.138;5.216;2023-07-13T02:28:10;6.0;;;2.8;;
64018;SDS011;66942;52.138;5.216;2023-07-13T02:31:22;6.1;;;2.8;;
64018;SDS011;66942;52.138;5.216;2023-07-13T02:32:58;7.2;;;2.9;;
64018;SDS011;66942;52.138;5.216;2023-07-13T02:34:34;7.4;;;2.9;;
64018;SDS011;66942;52.138;5.216;2023-07-13T02:37:48;8.31;;;3.6;;
64018;SDS011;66942;52.138;5.216;2023-07-13T02:39:24;6.3;;;3.0;;
64018;SDS011;66942;52.138;5.216;2023-07-13T02:41:01;7.3;;;2.9;;
64018;SDS011;66942;52.138;5.216;2023-07-13T02:44:13;7.3;;;3.4;;
64018;SDS011;66942;52.138;5.216;2023-07-13T02:45:50;8.4;;;3.6;;
64018;SDS011;66942;52.138;5.216;2023-07-13T02:47:26;7.2;;;2.9;;
64018;SDS011;66942;52.138;5.216;2023-07-13T02:49:02;6.6;;;3.2;;
64018;SDS011;66942;52.138;5.216;2023-07-13T02:52:16;7.5;;;3.3;;
64018;SDS011;66942;52.138;5.216;2023-07-13T02:53:52;7.8;;;3.5;;
64018;SDS011;66942;52.138;5.216;2023-07-13T02:55:28;7.5;;;3.3;;
64018;SDS011;66942;52.138;5.216;2023-07-13T02:58:41;9.5;;;3.7;;
64018;SDS011;66942;52.138;5.216;2023-07-13T03:00:17;9.31;;;3.4;;
64018;SDS011;66942;52.138;5.216;2023-07-13T03:01:53;9.0;;;3.4;;
64018;SDS011;66942;52.138;5.216;2023-07-13T03:05:06;8.0;;;3.5;;
64018;SDS011;66942;52.138;5.216;2023-07-13T03:06:43;6.7;;;3.5;;
64018;SDS011;66942;52.138;5.216;2023-07-13T03:08:19;11.2;;;3.8;;
64018;SDS011;66942;52.138;5.216;2023-07-13T03:09:55;6.5;;;3.4;;
64018;SDS011;66942;52.138;5.216;2023-07-13T03:13:09;7.7;;;3.4;;
64018;SDS011;66942;52.138;5.216;2023-07-13T03:14:45;7.5;;;3.3;;
64018;SDS011;66942;52.138;5.216;2023-07-13T03:16:21;8.31;;;3.5;;
64018;SDS011;66942;52.138;5.216;2023-07-13T03:19:34;6.4;;;3.5;;
64018;SDS011;66942;52.138;5.216;2023-07-13T03:21:10;7.4;;;3.5;;
64018;SDS011;66942;52.138;5.216;2023-07-13T03:22:46;6.9;;;3.3;;
64018;SDS011;66942;52.138;5.216;2023-07-13T03:26:02;7.9;;;3.6;;
64018;SDS011;66942;52.138;5.216;2023-07-13T03:27:41;6.4;;;3.3;;
64018;SDS011;66942;52.138;5.216;2023-07-13T03:29:17;7.4;;;3.6;;
64018;SDS011;66942;52.138;5.216;2023-07-13T03:30:58;8.31;;;3.3;;
64018;SDS011;66942;52.138;5.216;2023-07-13T03:34:11;7.7;;;3.4;;
64018;SDS011;66942;52.138;5.216;2023-07-13T03:35:47;8.9;;;3.2;;
64018;SDS011;66942;52.138;5.216;2023-07-13T03:37:24;7.0;;;2.9;;
64018;SDS011;66942;52.138;5.216;2023-07-13T03:40:38;7.3;;;3.2;;
64018;SDS011;66942;52.138;5.216;2023-07-13T03:42:14;6.6;;;3.0;;
64018;SDS011;66942;52.138;5.216;2023-07-13T03:43:50;7.8;;;3.2;;
64018;SDS011;66942;52.138;5.216;2023-07-13T03:45:27;7.2;;;3.1;;
64018;SDS011;66942;52.138;5.216;2023-07-13T03:48:40;7.3;;;2.9;;
64018;SDS011;66942;52.138;5.216;2023-07-13T03:50:16;6.2;;;3.2;;
64018;SDS011;66942;52.138;5.216;2023-07-13T03:51:52;6.3;;;2.7;;
64018;SDS011;66942;52.138;5.216;2023-07-13T03:55:04;6.8;;;2.8;;
64018;SDS011;66942;52.138;5.216;2023-07-13T03:56:41;6.9;;;2.9;;
64018;SDS011;66942;52.138;5.216;2023-07-13T03:58:26;61.8;;;12.5;;
64018;SDS011;66942;52.138;5.216;2023-07-13T04:00:13;5.0;;;2.8;;
64018;SDS011;66942;52.138;5.216;2023-07-13T04:03:26;6.8;;;3.0;;
64018;SDS011;66942;52.138;5.216;2023-07-13T04:05:03;6.2;;;2.8;;
64018;SDS011;66942;52.138;5.216;2023-07-13T04:06:40;6.7;;;3.2;;
64018;SDS011;66942;52.138;5.216;2023-07-13T04:09:52;7.6;;;3.6;;
64018;SDS011;66942;52.138;5.216;2023-07-13T04:11:29;6.8;;;3.5;;
64018;SDS011;66942;52.138;5.216;2023-07-13T04:13:07;9.1;;;3.9;;
64018;SDS011;66942;52.138;5.216;2023-07-13T04:14:44;9.9;;;4.1;;
64018;SDS011;66942;52.138;5.216;2023-07-13T04:17:57;8.31;;;3.7;;
64018;SDS011;66942;52.138;5.216;2023-07-13T04:19:34;8.71;;;3.9;;
64018;SDS011;66942;52.138;5.216;2023-07-13T04:21:10;9.0;;;3.7;;
64018;SDS011;66942;52.138;5.216;2023-07-13T04:24:24;9.6;;;3.9;;
64018;SDS011;66942;52.138;5.216;2023-07-13T04:26:00;8.6;;;3.8;;
64018;SDS011;66942;52.138;5.216;2023-07-13T04:27:36;9.31;;;4.41;;
64018;SDS011;66942;52.138;5.216;2023-07-13T04:30:48;9.6;;;4.0;;
64018;SDS011;66942;52.138;5.216;2023-07-13T04:32:25;10.21;;;4.0;;
64018;SDS011;66942;52.138;5.216;2023-07-13T04:34:01;10.8;;;4.41;;
64018;SDS011;66942;52.138;5.216;2023-07-13T04:37:15;9.31;;;4.91;;
64018;SDS011;66942;52.138;5.216;2023-07-13T04:38:51;10.4;;;4.8;;
64018;SDS011;66942;52.138;5.216;2023-07-13T04:40:27;32.9;;;11.5;;
64018;SDS011;66942;52.138;5.216;2023-07-13T04:42:04;10.7;;;5.5;;
64018;SDS011;66942;52.138;5.216;2023-07-13T04:45:17;13.0;;;5.6;;
64018;SDS011;66942;52.138;5.216;2023-07-13T04:46:53;9.0;;;4.2;;
64018;SDS011;66942;52.138;5.216;2023-07-13T04:48:30;12.5;;;5.11;;
64018;SDS011;66942;52.138;5.216;2023-07-13T04:51:44;12.8;;;5.2;;
64018;SDS011;66942;52.138;5.216;2023-07-13T04:53:20;13.8;;;5.4;;
64018;SDS011;66942;52.138;5.216;2023-07-13T04:54:56;10.3;;;4.8;;
64018;SDS011;66942;52.138;5.216;2023-07-13T04:58:08;13.0;;;5.8;;
64018;SDS011;66942;52.138;5.216;2023-07-13T04:59:45;10.3;;;4.8;;
64018;SDS011;66942;52.138;5.216;2023-07-13T05:01:21;10.9;;;5.0;;
64018;SDS011;66942;52.138;5.216;2023-07-13T05:02:57;9.0;;;4.61;;
64018;SDS011;66942;52.138;5.216;2023-07-13T05:06:10;11.1;;;5.2;;
64018;SDS011;66942;52.138;5.216;2023-07-13T05:07:46;13.3;;;5.5;;
64018;SDS011;66942;52.138;5.216;2023-07-13T05:09:22;11.0;;;5.0;;
64018;SDS011;66942;52.138;5.216;2023-07-13T05:12:36;11.3;;;5.3;;
64018;SDS011;66942;52.138;5.216;2023-07-13T05:14:12;9.1;;;4.8;;
64018;SDS011;66942;52.138;5.216;2023-07-13T05:15:54;12.6;;;5.5;;
64018;SDS011;66942;52.138;5.216;2023-07-13T05:17:32;13.9;;;6.0;;
64018;SDS011;66942;52.138;5.216;2023-07-13T05:20:46;12.1;;;5.3;;
64018;SDS011;66942;52.138;5.216;2023-07-13T05:22:22;13.3;;;5.6;;
64018;SDS011;66942;52.138;5.216;2023-07-13T05:23:59;11.7;;;5.5;;
64018;SDS011;66942;52.138;5.216;2023-07-13T05:27:11;14.1;;;5.7;;
64018;SDS011;66942;52.138;5.216;2023-07-13T05:28:47;11.4;;;5.11;;
64018;SDS011;66942;52.138;5.216;2023-07-13T05:30:23;10.21;;;5.3;;
64018;SDS011;66942;52.138;5.216;2023-07-13T05:33:36;13.4;;;5.3;;
64018;SDS011;66942;52.138;5.216;2023-07-13T05:35:12;15.3;;;5.7;;
64018;SDS011;66942;52.138;5.216;2023-07-13T05:36:48;12.1;;;5.4;;
64018;SDS011;66942;52.138;5.216;2023-07-13T05:38:25;12.7;;;5.9;;
64018;SDS011;66942;52.138;5.216;2023-07-13T05:41:37;11.3;;;5.7;;
64018;SDS011;66942;52.138;5.216;2023-07-13T05:43:13;11.9;;;5.3;;
64018;SDS011;66942;52.138;5.216;2023-07-13T05:44:50;13.7;;;6.4;;
64018;SDS011;66942;52.138;5.216;2023-07-13T05:48:04;12.0;;;5.9;;
64018;SDS011;66942;52.138;5.216;2023-07-13T05:49:40;13.5;;;6.5;;
64018;SDS011;66942;52.138;5.216;2023-07-13T05:51:16;11.6;;;6.2;;
64018;SDS011;66942;52.138;5.216;2023-07-13T05:54:28;11.6;;;5.7;;
64018;SDS011;66942;52.138;5.216;2023-07-13T05:56:04;12.1;;;6.1;;
64018;SDS011;66942;52.138;5.216;2023-07-13T05:57:41;11.6;;;6.2;;
64018;SDS011;66942;52.138;5.216;2023-07-13T06:00:58;12.2;;;5.7;;
64018;SDS011;66942;52.138;5.216;2023-07-13T06:02:36;12.5;;;6.2;;
64018;SDS011;66942;52.138;5.216;2023-07-13T06:04:12;10.8;;;6.0;;
64018;SDS011;66942;52.138;5.216;2023-07-13T06:05:48;13.7;;;6.6;;
64018;SDS011;66942;52.138;5.216;2023-07-13T06:09:01;12.9;;;6.4;;
64018;SDS011;66942;52.138;5.216;2023-07-13T06:10:38;12.7;;;6.5;;
64018;SDS011;66942;52.138;5.216;2023-07-13T06:12:14;9.6;;;5.5;;
64018;SDS011;66942;52.138;5.216;2023-07-13T06:15:27;12.4;;;6.1;;
64018;SDS011;66942;52.138;5.216;2023-07-13T06:17:03;11.6;;;6.2;;
64018;SDS011;66942;52.138;5.216;2023-07-13T06:18:41;10.9;;;5.6;;
64018;SDS011;66942;52.138;5.216;2023-07-13T06:20:17;10.4;;;5.8;;
64018;SDS011;66942;52.138;5.216;2023-07-13T06:23:30;12.1;;;6.3;;
64018;SDS011;66942;52.138;5.216;2023-07-13T06:25:06;9.5;;;5.8;;
64018;SDS011;66942;52.138;5.216;2023-07-13T06:26:43;10.9;;;6.2;;
64018;SDS011;66942;52.138;5.216;2023-07-13T06:29:55;9.71;;;5.5;;
64018;SDS011;66942;52.138;5.216;2023-07-13T06:31:31;10.3;;;5.8;;
64018;SDS011;66942;52.138;5.216;2023-07-13T06:33:07;10.6;;;5.8;;
64018;SDS011;66942;52.138;5.216;2023-07-13T06:36:19;11.1;;;5.8;;
64018;SDS011;66942;52.138;5.216;2023-07-13T06:37:55;9.31;;;5.4;;
64018;SDS011;66942;52.138;5.216;2023-07-13T06:39:32;11.1;;;5.9;;
64018;SDS011;66942;52.138;5.216;2023-07-13T06:42:45;14.4;;;6.1;;
64018;SDS011;66942;52.138;5.216;2023-07-13T06:44:21;15.8;;;7.0;;
64018;SDS011;66942;52.138;5.216;2023-07-13T06:45:57;12.8;;;6.4;;
64018;SDS011;66942;52.138;5.216;2023-07-13T06:47:34;11.3;;;6.3;;
64018;SDS011;66942;52.138;5.216;2023-07-13T06:50:47;13.8;;;8.1;;
64018;SDS011;66942;52.138;5.216;2023-07-13T06:52:24;13.7;;;7.4;;
64018;SDS011;66942;52.138;5.216;2023-07-13T06:54:01;14.0;;;7.5;;
64018;SDS011;66942;52.138;5.216;2023-07-13T06:57:14;12.5;;;7.2;;
64018;SDS011;66942;52.138;5.216;2023-07-13T06:58:50;12.6;;;7.3;;
64018;SDS011;66942;52.138;5.216;2023-07-13T07:00:26;15.4;;;7.6;;
64018;SDS011;66942;52.138;5.216;2023-07-13T07:03:39;11.0;;;7.4;;
64018;SDS011;66942;52.138;5.216;2023-07-13T07:05:16;13.6;;;7.8;;
64018;SDS011;66942;52.138;5.216;2023-07-13T07:06:52;11.2;;;6.7;;
64018;SDS011;66942;52.138;5.216;2023-07-13T07:08:28;13.0;;;7.5;;
64018;SDS011;66942;52.138;5.216;2023-07-13T07:11:41;9.71;;;7.4;;
64018;SDS011;66942;52.138;5.216;2023-07-13T07:13:18;12.1;;;8.1;;
64018;SDS011;66942;52.138;5.216;2023-07-13T07:14:54;16.11;;;8.31;;
64018;SDS011;66942;52.138;5.216;2023-07-13T07:18:07;11.1;;;7.7;;
64018;SDS011;66942;52.138;5.216;2023-07-13T07:19:43;12.4;;;8.4;;
64018;SDS011;66942;52.138;5.216;2023-07-13T07:21:19;10.21;;;6.5;;
64018;SDS011;66942;52.138;5.216;2023-07-13T07:24:31;10.21;;;5.8;;
64018;SDS011;66942;52.138;5.216;2023-07-13T07:26:07;5.7;;;4.3;;
64018;SDS011;66942;52.138;5.216;2023-07-13T07:27:44;4.5;;;3.5;;
64018;SDS011;66942;52.138;5.216;2023-07-13T07:29:21;4.91;;;3.3;;
64018;SDS011;66942;52.138;5.216;2023-07-13T07:32:34;5.0;;;3.1;;
64018;SDS011;66942;52.138;5.216;2023-07-13T07:34:10;5.3;;;3.3;;
64018;SDS011;66942;52.138;5.216;2023-07-13T07:35:46;4.8;;;3.3;;
64018;SDS011;66942;52.138;5.216;2023-07-13T07:38:59;5.11;;;3.6;;
64018;SDS011;66942;52.138;5.216;2023-07-13T07:40:36;5.11;;;3.3;;
64018;SDS011;66942;52.138;5.216;2023-07-13T07:42:13;7.0;;;4.0;;
64018;SDS011;66942;52.138;5.216;2023-07-13T07:45:26;5.8;;;4.3;;
64018;SDS011;66942;52.138;5.216;2023-07-13T07:47:02;6.5;;;4.5;;
64018;SDS011;66942;52.138;5.216;2023-07-13T07:48:39;8.2;;;5.5;;
64018;SDS011;66942;52.138;5.216;2023-07-13T07:50:15;7.7;;;5.11;;
64018;SDS011;66942;52.138;5.216;2023-07-13T07:53:28;8.0;;;5.2;;
64018;SDS011;66942;52.138;5.216;2023-07-13T07:55:05;10.21;;;6.4;;
64018;SDS011;66942;52.138;5.216;2023-07-13T07:56:43;9.4;;;5.8;;
64018;SDS011;66942;52.138;5.216;2023-07-13T07:59:56;8.31;;;5.2;;
64018;SDS011;66942;52.138;5.216;2023-07-13T08:01:32;12.2;;;6.5;;
64018;SDS011;66942;52.138;5.216;2023-07-13T08:03:08;10.0;;;6.1;;
64018;SDS011;66942;52.138;5.216;2023-07-13T08:06:22;9.5;;;5.11;;
64018;SDS011;66942;52.138;5.216;2023-07-13T08:08:00;8.9;;;4.91;;
64018;SDS011;66942;52.138;5.216;2023-07-13T08:09:36;8.71;;;5.2;;
64018;SDS011;66942;52.138;5.216;2023-07-13T08:11:12;8.0;;;5.2;;
64018;SDS011;66942;52.138;5.216;2023-07-13T08:14:24;8.2;;;5.11;;
64018;SDS011;66942;52.138;5.216;2023-07-13T08:16:01;7.3;;;5.11;;
64018;SDS011;66942;52.138;5.216;2023-07-13T08:17:40;7.7;;;4.61;;
64018;SDS011;66942;52.138;5.216;2023-07-13T08:20:53;7.7;;;4.61;;
64018;SDS011;66942;52.138;5.216;2023-07-13T08:22:29;6.3;;;4.3;;
64018;SDS011;66942;52.138;5.216;2023-07-13T08:24:05;7.6;;;4.8;;
64018;SDS011;66942;52.138;5.216;2023-07-13T08:27:27;6.1;;;4.5;;
64018;SDS011;66942;52.138;5.216;2023-07-13T08:29:04;7.6;;;4.61;;
64018;SDS011;66942;52.138;5.216;2023-07-13T08:30:40;7.8;;;4.8;;
64018;SDS011;66942;52.138;5.216;2023-07-13T08:32:16;7.8;;;4.5;;
64018;SDS011;66942;52.138;5.216;2023-07-13T08:35:31;5.9;;;3.4;;
64018;SDS011;66942;52.138;5.216;2023-07-13T08:37:07;3.3;;;2.7;;
64018;SDS011;66942;52.138;5.216;2023-07-13T08:38:45;4.0;;;2.9;;
64018;SDS011;66942;52.138;5.216;2023-07-13T08:42:01;4.61;;;3.1;;
64018;SDS011;66942;52.138;5.216;2023-07-13T08:43:47;3.8;;;2.7;;
64018;SDS011;66942;52.138;5.216;2023-07-13T08:45:33;5.4;;;2.5;;
64018;SDS011;66942;52.138;5.216;2023-07-13T08:47:18;6.3;;;3.7;;
64018;SDS011;66942;52.138;5.216;2023-07-13T08:49:01;5.11;;;3.3;;
64018;SDS011;66942;52.138;5.216;2023-07-13T08:52:34;5.11;;;3.3;;
64018;SDS011;66942;52.138;5.216;2023-07-13T08:54:17;4.91;;;3.0;;
64018;SDS011;66942;52.138;5.216;2023-07-13T08:55:59;4.2;;;3.0;;
64018;SDS011;66942;52.138;5.216;2023-07-13T08:57:36;3.8;;;2.5;;
64018;SDS011;66942;52.138;5.216;2023-07-13T08:59:17;2.9;;;2.1;;
64018;SDS011;66942;52.138;5.216;2023-07-13T09:02:45;2.4;;;2.21;;
64018;SDS011;66942;52.138;5.216;2023-07-13T09:04:29;3.9;;;2.8;;
64018;SDS011;66942;52.138;5.216;2023-07-13T09:06:10;2.7;;;2.4;;
64018;SDS011;66942;52.138;5.216;2023-07-13T09:07:57;3.6;;;2.7;;
64018;SDS011;66942;52.138;5.216;2023-07-13T09:09:52;3.8;;;2.8;;
64018;SDS011;66942;52.138;5.216;2023-07-13T09:13:31;3.8;;;2.9;;
64018;SDS011;66942;52.138;5.216;2023-07-13T09:15:22;3.9;;;3.1;;
64018;SDS011;66942;52.138;5.216;2023-07-13T09:17:04;3.7;;;3.0;;
64018;SDS011;66942;52.138;5.216;2023-07-13T09:18:48;3.5;;;3.2;;
64018;SDS011;66942;52.138;5.216;2023-07-13T09:20:29;2.9;;;2.7;;
64018;SDS011;66942;52.138;5.216;2023-07-13T09:23:56;3.5;;;2.9;;
64018;SDS011;66942;52.138;5.216;2023-07-13T09:25:59;4.5;;;3.3;;
64018;SDS011;66942;52.138;5.216;2023-07-13T09:27:42;3.8;;;3.0;;
64018;SDS011;66942;52.138;5.216;2023-07-13T09:29:26;5.8;;;3.3;;
64018;SDS011;66942;52.138;5.216;2023-07-13T09:31:06;4.2;;;3.4;;
64018;SDS011;66942;52.138;5.216;2023-07-13T09:32:48;3.9;;;3.5;;
64018;SDS011;66942;52.138;5.216;2023-07-13T09:36:15;7.8;;;4.41;;
64018;SDS011;66942;52.138;5.216;2023-07-13T09:38:01;7.4;;;4.8;;
64018;SDS011;66942;52.138;5.216;2023-07-13T09:39:46;10.21;;;4.61;;
64018;SDS011;66942;52.138;5.216;2023-07-13T09:41:26;4.3;;;3.3;;
64018;SDS011;66942;52.138;5.216;2023-07-13T09:44:51;4.7;;;3.2;;
64018;SDS011;66942;52.138;5.216;2023-07-13T09:46:29;3.2;;;2.5;;
64018;SDS011;66942;52.138;5.216;2023-07-13T09:48:06;3.3;;;2.31;;
64018;SDS011;66942;52.138;5.216;2023-07-13T09:49:48;2.31;;;1.9;;
64018;SDS011;66942;52.138;5.216;2023-07-13T09:53:11;3.1;;;2.4;;
64018;SDS011;66942;52.138;5.216;2023-07-13T09:54:49;2.31;;;2.1;;
64018;SDS011;66942;52.138;5.216;2023-07-13T09:56:28;3.8;;;2.4;;
64018;SDS011;66942;52.138;5.216;2023-07-13T09:58:08;2.7;;;2.4;;
64018;SDS011;66942;52.138;5.216;2023-07-13T10:01:31;2.9;;;2.5;;
64018;SDS011;66942;52.138;5.216;2023-07-13T10:03:14;3.8;;;2.9;;
64018;SDS011;66942;52.138;5.216;2023-07-13T10:04:55;2.9;;;2.6;;
64018;SDS011;66942;52.138;5.216;2023-07-13T10:06:34;3.3;;;2.7;;
64018;SDS011;66942;52.138;5.216;2023-07-13T10:09:58;3.6;;;3.0;;
64018;SDS011;66942;52.138;5.216;2023-07-13T10:11:36;4.41;;;3.3;;
64018;SDS011;66942;52.138;5.216;2023-07-13T10:13:33;4.8;;;3.8;;
64018;SDS011;66942;52.138;5.216;2023-07-13T10:15:13;5.11;;;4.3;;
64018;SDS011;66942;52.138;5.216;2023-07-13T10:16:56;5.3;;;3.8;;
64018;SDS011;66942;52.138;5.216;2023-07-13T10:20:20;4.41;;;3.7;;
64018;SDS011;66942;52.138;5.216;2023-07-13T10:22:00;4.0;;;3.6;;
64018;SDS011;66942;52.138;5.216;2023-07-13T10:23:37;4.0;;;3.4;;
64018;SDS011;66942;52.138;5.216;2023-07-13T10:25:15;4.5;;;3.9;;
64018;SDS011;66942;52.138;5.216;2023-07-13T10:28:51;5.2;;;4.3;;
64018;SDS011;66942;52.138;5.216;2023-07-13T10:30:31;4.1;;;3.7;;
64018;SDS011;66942;52.138;5.216;2023-07-13T10:32:14;4.2;;;3.8;;
64018;SDS011;66942;52.138;5.216;2023-07-13T10:33:50;4.61;;;4.0;;
64018;SDS011;66942;52.138;5.216;2023-07-13T10:37:06;5.2;;;4.1;;
64018;SDS011;66942;52.138;5.216;2023-07-13T10:38:52;5.7;;;4.41;;
64018;SDS011;66942;52.138;5.216;2023-07-13T10:40:32;6.2;;;4.8;;
64018;SDS011;66942;52.138;5.216;2023-07-13T10:42:15;5.0;;;4.5;;
64018;SDS011;66942;52.138;5.216;2023-07-13T10:44:10;5.2;;;4.1;;
64018;SDS011;66942;52.138;5.216;2023-07-13T10:47:32;5.11;;;3.9;;
64018;SDS011;66942;52.138;5.216;2023-07-13T10:49:09;4.61;;;4.1;;
64018;SDS011;66942;52.138;5.216;2023-07-13T10:50:49;4.91;;;3.9;;
64018;SDS011;66942;52.138;5.216;2023-07-13T10:52:40;4.0;;;3.6;;
64018;SDS011;66942;52.138;5.216;2023-07-13T10:54:26;4.5;;;3.8;;
64018;SDS011;66942;52.138;5.216;2023-07-13T10:58:00;4.5;;;3.6;;
64018;SDS011;66942;52.138;5.216;2023-07-13T10:59:37;3.2;;;2.8;;
64018;SDS011;66942;52.138;5.216;2023-07-13T11:01:15;4.61;;;3.4;;
64018;SDS011;66942;52.138;5.216;2023-07-13T11:02:56;3.4;;;3.1;;
64018;SDS011;66942;52.138;5.216;2023-07-13T11:06:30;3.4;;;3.1;;
64018;SDS011;66942;52.138;5.216;2023-07-13T11:08:13;3.4;;;3.1;;
64018;SDS011;66942;52.138;5.216;2023-07-13T11:09:56;4.0;;;3.3;;
64018;SDS011;66942;52.138;5.216;2023-07-13T11:11:36;3.9;;;3.4;;
64018;SDS011;66942;52.138;5.216;2023-07-13T11:13:35;5.11;;;3.2;;
64018;SDS011;66942;52.138;5.216;2023-07-13T11:15:32;4.8;;;3.2;;
64018;SDS011;66942;52.138;5.216;2023-07-13T11:17:25;3.4;;;3.0;;
64018;SDS011;66942;52.138;5.216;2023-07-13T11:21:17;4.1;;;3.3;;
64018;SDS011;66942;52.138;5.216;2023-07-13T11:23:07;4.1;;;3.1;;
64018;SDS011;66942;52.138;5.216;2023-07-13T11:24:58;4.0;;;3.3;;
64018;SDS011;66942;52.138;5.216;2023-07-13T11:26:38;3.1;;;2.8;;
64018;SDS011;66942;52.138;5.216;2023-07-13T11:28:18;3.3;;;2.6;;
64018;SDS011;66942;52.138;5.216;2023-07-13T11:30:07;2.8;;;2.5;;
64018;SDS011;66942;52.138;5.216;2023-07-13T11:32:01;2.5;;;2.31;;
64018;SDS011;66942;52.138;5.216;2023-07-13T11:35:37;3.0;;;2.7;;
64018;SDS011;66942;52.138;5.216;2023-07-13T11:37:19;3.5;;;2.8;;
64018;SDS011;66942;52.138;5.216;2023-07-13T11:39:00;3.0;;;2.7;;
64018;SDS011;66942;52.138;5.216;2023-07-13T11:40:41;3.8;;;2.7;;
64018;SDS011;66942;52.138;5.216;2023-07-13T11:44:01;4.41;;;3.5;;
64018;SDS011;66942;52.138;5.216;2023-07-13T11:45:43;4.1;;;3.0;;
64018;SDS011;66942;52.138;5.216;2023-07-13T11:47:21;3.4;;;3.1;;
64018;SDS011;66942;52.138;5.216;2023-07-13T11:48:58;5.11;;;3.3;;
64018;SDS011;66942;52.138;5.216;2023-07-13T11:52:11;3.6;;;3.3;;
64018;SDS011;66942;52.138;5.216;2023-07-13T11:53:51;4.2;;;3.1;;
64018;SDS011;66942;52.138;5.216;2023-07-13T11:55:29;3.7;;;3.3;;
64018;SDS011;66942;52.138;5.216;2023-07-13T11:57:06;4.41;;;3.4;;
64018;SDS011;66942;52.138;5.216;2023-07-13T12:00:43;4.41;;;3.1;;
64018;SDS011;66942;52.138;5.216;2023-07-13T12:02:26;5.3;;;3.5;;
64018;SDS011;66942;52.138;5.216;2023-07-13T12:04:06;3.6;;;3.3;;
64018;SDS011;66942;52.138;5.216;2023-07-13T12:05:56;3.7;;;3.3;;
64018;SDS011;66942;52.138;5.216;2023-07-13T12:07:36;4.0;;;3.5;;
64018;SDS011;66942;52.138;5.216;2023-07-13T12:10:56;3.8;;;3.4;;
64018;SDS011;66942;52.138;5.216;2023-07-13T12:12:40;4.0;;;3.1;;
64018;SDS011;66942;52.138;5.216;2023-07-13T12:14:24;3.7;;;3.0;;
64018;SDS011;66942;52.138;5.216;2023-07-13T12:16:00;3.4;;;3.1;;
64018;SDS011;66942;52.138;5.216;2023-07-13T12:19:15;4.5;;;3.4;;
64018;SDS011;66942;52.138;5.216;2023-07-13T12:20:56;7.3;;;3.1;;
64018;SDS011;66942;52.138;5.216;2023-07-13T12:22:34;4.1;;;3.2;;
64018;SDS011;66942;52.138;5.216;2023-07-13T12:25:51;3.3;;;2.7;;
64018;SDS011;66942;52.138;5.216;2023-07-13T12:27:28;6.0;;;3.0;;
64018;SDS011;66942;52.138;5.216;2023-07-13T12:29:05;4.41;;;3.0;;
64018;SDS011;66942;52.138;5.216;2023-07-13T12:30:43;4.8;;;3.1;;
64018;SDS011;66942;52.138;5.216;2023-07-13T12:34:03;3.7;;;2.4;;
64018;SDS011;66942;52.138;5.216;2023-07-13T12:35:45;3.2;;;2.6;;
64018;SDS011;66942;52.138;5.216;2023-07-13T12:37:25;3.6;;;2.9;;
64018;SDS011;66942;52.138;5.216;2023-07-13T12:39:04;3.7;;;2.8;;
64018;SDS011;66942;52.138;5.216;2023-07-13T12:42:27;5.2;;;3.0;;
64018;SDS011;66942;52.138;5.216;2023-07-13T12:44:09;3.8;;;2.8;;
64018;SDS011;66942;52.138;5.216;2023-07-13T12:45:55;3.9;;;2.7;;
64018;SDS011;66942;52.138;5.216;2023-07-13T12:47:39;5.7;;;2.8;;
64018;SDS011;66942;52.138;5.216;2023-07-13T12:51:00;2.9;;;2.6;;
64018;SDS011;66942;52.138;5.216;2023-07-13T12:52:37;4.0;;;2.9;;
64018;SDS011;66942;52.138;5.216;2023-07-13T12:54:15;3.0;;;2.6;;